sensor_id;sensor_type;location;lat;lon;timestamp;P1;durP1;ratioP1;P2;durP2;ratioP2
53654;SDS011;39558;52.028;8.536;2022-12-18T00:01:21;13.02;;;7.03;;
53654;SDS011;39558;52.028;8.536;2022-12-18T00:03:47;10.50;;;6.93;;
53654;SDS011;39558;52.028;8.536;2022-12-18T00:06:13;11.15;;;6.70;;
53654;SDS011;39558;52.028;8.536;2022-12-18T00:08:40;11.85;;;6.53;;
53654;SDS011;39558;52.028;8.536;2022-12-18T00:11:07;13.15;;;7.10;;
53654;SDS011;39558;52.028;8.536;2022-12-18T00:13:33;10.65;;;6.63;;
53654;SDS011;39558;52.028;8.536;2022-12-18T00:16:03;13.25;;;7.78;;
53654;SDS011;39558;52.028;8.536;2022-12-18T00:18:29;9.98;;;5.78;;
53654;SDS011;39558;52.028;8.536;2022-12-18T00:20:58;11.40;;;6.72;;
53654;SDS011;39558;52.028;8.536;2022-12-18T00:23:24;10.63;;;6.78;;
53654;SDS011;39558;52.028;8.536;2022-12-18T00:25:51;10.95;;;7.13;;
53654;SDS011;39558;52.028;8.536;2022-12-18T00:28:17;13.50;;;7.30;;
53654;SDS011;39558;52.028;8.536;2022-12-18T00:30:43;10.60;;;6.07;;
53654;SDS011;39558;52.028;8.536;2022-12-18T00:33:08;12.90;;;6.85;;
53654;SDS011;39558;52.028;8.536;2022-12-18T00:35:34;11.05;;;6.18;;
53654;SDS011;39558;52.028;8.536;2022-12-18T00:38:00;9.63;;;6.30;;
53654;SDS011;39558;52.028;8.536;2022-12-18T00:40:26;11.80;;;7.40;;
53654;SDS011;39558;52.028;8.536;2022-12-18T00:42:52;13.10;;;6.85;;
53654;SDS011;39558;52.028;8.536;2022-12-18T00:45:22;11.23;;;6.93;;
53654;SDS011;39558;52.028;8.536;2022-12-18T00:47:50;12.03;;;6.87;;
53654;SDS011;39558;52.028;8.536;2022-12-18T00:50:17;10.00;;;6.20;;
53654;SDS011;39558;52.028;8.536;2022-12-18T00:52:43;10.32;;;6.15;;
53654;SDS011;39558;52.028;8.536;2022-12-18T00:55:09;10.80;;;6.53;;
53654;SDS011;39558;52.028;8.536;2022-12-18T00:57:35;10.90;;;6.68;;
53654;SDS011;39558;52.028;8.536;2022-12-18T01:00:01;12.68;;;6.57;;
53654;SDS011;39558;52.028;8.536;2022-12-18T01:02:27;11.70;;;6.78;;
53654;SDS011;39558;52.028;8.536;2022-12-18T01:04:53;13.75;;;6.65;;
53654;SDS011;39558;52.028;8.536;2022-12-18T01:07:19;10.40;;;6.25;;
53654;SDS011;39558;52.028;8.536;2022-12-18T01:09:45;11.57;;;6.47;;
53654;SDS011;39558;52.028;8.536;2022-12-18T01:12:11;11.45;;;6.38;;
53654;SDS011;39558;52.028;8.536;2022-12-18T01:14:36;11.02;;;6.38;;
53654;SDS011;39558;52.028;8.536;2022-12-18T01:17:03;11.45;;;7.15;;
53654;SDS011;39558;52.028;8.536;2022-12-18T01:19:29;11.70;;;6.38;;
53654;SDS011;39558;52.028;8.536;2022-12-18T01:21:55;10.55;;;6.72;;
53654;SDS011;39558;52.028;8.536;2022-12-18T01:24:20;11.27;;;6.03;;
53654;SDS011;39558;52.028;8.536;2022-12-18T01:26:46;11.32;;;7.43;;
53654;SDS011;39558;52.028;8.536;2022-12-18T01:29:12;10.27;;;6.35;;
53654;SDS011;39558;52.028;8.536;2022-12-18T01:31:38;9.52;;;6.07;;
53654;SDS011;39558;52.028;8.536;2022-12-18T01:34:04;10.90;;;6.15;;
53654;SDS011;39558;52.028;8.536;2022-12-18T01:36:34;11.70;;;6.43;;
53654;SDS011;39558;52.028;8.536;2022-12-18T01:39:02;10.95;;;6.78;;
53654;SDS011;39558;52.028;8.536;2022-12-18T01:41:29;11.90;;;7.00;;
53654;SDS011;39558;52.028;8.536;2022-12-18T01:47:00;12.02;;;6.88;;
53654;SDS011;39558;52.028;8.536;2022-12-18T01:49:26;10.10;;;5.88;;
53654;SDS011;39558;52.028;8.536;2022-12-18T01:51:52;11.07;;;6.53;;
53654;SDS011;39558;52.028;8.536;2022-12-18T01:54:18;12.20;;;6.78;;
53654;SDS011;39558;52.028;8.536;2022-12-18T01:56:44;10.75;;;5.88;;
53654;SDS011;39558;52.028;8.536;2022-12-18T01:59:10;12.23;;;7.28;;
53654;SDS011;39558;52.028;8.536;2022-12-18T02:01:36;10.77;;;5.93;;
53654;SDS011;39558;52.028;8.536;2022-12-18T02:04:22;11.68;;;6.45;;
53654;SDS011;39558;52.028;8.536;2022-12-18T02:06:50;11.02;;;6.50;;
53654;SDS011;39558;52.028;8.536;2022-12-18T02:09:21;10.10;;;6.15;;
53654;SDS011;39558;52.028;8.536;2022-12-18T02:11:53;11.85;;;6.63;;
53654;SDS011;39558;52.028;8.536;2022-12-18T02:14:35;9.88;;;6.30;;
53654;SDS011;39558;52.028;8.536;2022-12-18T02:17:14;11.40;;;6.88;;
53654;SDS011;39558;52.028;8.536;2022-12-18T02:22:36;11.27;;;5.97;;
53654;SDS011;39558;52.028;8.536;2022-12-18T02:25:13;9.82;;;5.95;;
53654;SDS011;39558;52.028;8.536;2022-12-18T02:27:41;11.85;;;7.00;;
53654;SDS011;39558;52.028;8.536;2022-12-18T02:30:08;13.82;;;8.10;;
53654;SDS011;39558;52.028;8.536;2022-12-18T02:32:35;12.45;;;7.18;;
53654;SDS011;39558;52.028;8.536;2022-12-18T02:35:04;13.20;;;7.78;;
53654;SDS011;39558;52.028;8.536;2022-12-18T02:37:30;12.93;;;6.95;;
53654;SDS011;39558;52.028;8.536;2022-12-18T02:39:58;11.52;;;6.22;;
53654;SDS011;39558;52.028;8.536;2022-12-18T02:42:24;12.23;;;7.82;;
53654;SDS011;39558;52.028;8.536;2022-12-18T02:44:51;12.15;;;6.80;;
53654;SDS011;39558;52.028;8.536;2022-12-18T02:47:22;10.82;;;6.57;;
53654;SDS011;39558;52.028;8.536;2022-12-18T02:52:29;12.00;;;7.63;;
53654;SDS011;39558;52.028;8.536;2022-12-18T02:55:08;11.55;;;7.10;;
53654;SDS011;39558;52.028;8.536;2022-12-18T03:02:42;11.27;;;6.43;;
53654;SDS011;39558;52.028;8.536;2022-12-18T03:05:20;11.50;;;7.20;;
53654;SDS011;39558;52.028;8.536;2022-12-18T03:07:49;10.85;;;6.60;;
53654;SDS011;39558;52.028;8.536;2022-12-18T03:10:16;11.50;;;7.03;;
53654;SDS011;39558;52.028;8.536;2022-12-18T03:12:45;12.23;;;6.72;;
53654;SDS011;39558;52.028;8.536;2022-12-18T03:15:20;11.47;;;6.70;;
53654;SDS011;39558;52.028;8.536;2022-12-18T03:17:50;11.63;;;7.65;;
53654;SDS011;39558;52.028;8.536;2022-12-18T03:20:19;12.82;;;7.28;;
53654;SDS011;39558;52.028;8.536;2022-12-18T03:22:45;12.60;;;7.53;;
53654;SDS011;39558;52.028;8.536;2022-12-18T03:25:13;11.50;;;6.70;;
53654;SDS011;39558;52.028;8.536;2022-12-18T03:27:41;13.43;;;7.00;;
53654;SDS011;39558;52.028;8.536;2022-12-18T03:30:09;10.63;;;7.03;;
53654;SDS011;39558;52.028;8.536;2022-12-18T03:32:47;13.90;;;7.45;;
53654;SDS011;39558;52.028;8.536;2022-12-18T03:35:15;11.07;;;6.40;;
53654;SDS011;39558;52.028;8.536;2022-12-18T03:37:42;12.30;;;7.15;;
53654;SDS011;39558;52.028;8.536;2022-12-18T03:40:08;13.15;;;7.20;;
53654;SDS011;39558;52.028;8.536;2022-12-18T03:42:41;10.63;;;6.70;;
53654;SDS011;39558;52.028;8.536;2022-12-18T03:45:12;11.85;;;6.35;;
53654;SDS011;39558;52.028;8.536;2022-12-18T03:47:58;12.57;;;6.90;;
53654;SDS011;39558;52.028;8.536;2022-12-18T03:53:14;11.52;;;6.80;;
53654;SDS011;39558;52.028;8.536;2022-12-18T03:55:42;11.95;;;6.93;;
53654;SDS011;39558;52.028;8.536;2022-12-18T03:58:09;11.70;;;6.72;;
53654;SDS011;39558;52.028;8.536;2022-12-18T04:00:37;13.55;;;7.55;;
53654;SDS011;39558;52.028;8.536;2022-12-18T04:03:03;11.48;;;7.00;;
53654;SDS011;39558;52.028;8.536;2022-12-18T04:05:30;13.27;;;6.65;;
53654;SDS011;39558;52.028;8.536;2022-12-18T04:07:57;11.40;;;6.55;;
53654;SDS011;39558;52.028;8.536;2022-12-18T04:10:23;13.35;;;7.78;;
53654;SDS011;39558;52.028;8.536;2022-12-18T04:12:49;12.32;;;7.53;;
53654;SDS011;39558;52.028;8.536;2022-12-18T04:15:15;10.65;;;6.50;;
53654;SDS011;39558;52.028;8.536;2022-12-18T04:17:43;12.02;;;6.55;;
53654;SDS011;39558;52.028;8.536;2022-12-18T04:20:12;12.10;;;7.82;;
53654;SDS011;39558;52.028;8.536;2022-12-18T04:22:38;11.68;;;6.45;;
53654;SDS011;39558;52.028;8.536;2022-12-18T04:25:04;14.07;;;7.90;;
53654;SDS011;39558;52.028;8.536;2022-12-18T04:27:30;12.15;;;7.22;;
53654;SDS011;39558;52.028;8.536;2022-12-18T04:29:56;11.10;;;6.57;;
53654;SDS011;39558;52.028;8.536;2022-12-18T04:32:21;11.23;;;6.82;;
53654;SDS011;39558;52.028;8.536;2022-12-18T04:34:47;11.70;;;6.88;;
53654;SDS011;39558;52.028;8.536;2022-12-18T04:37:13;12.73;;;7.40;;
53654;SDS011;39558;52.028;8.536;2022-12-18T04:39:39;12.40;;;7.00;;
53654;SDS011;39558;52.028;8.536;2022-12-18T04:42:05;12.40;;;7.43;;
53654;SDS011;39558;52.028;8.536;2022-12-18T04:44:31;11.30;;;6.88;;
53654;SDS011;39558;52.028;8.536;2022-12-18T04:46:57;13.07;;;7.78;;
53654;SDS011;39558;52.028;8.536;2022-12-18T04:49:23;13.77;;;7.97;;
53654;SDS011;39558;52.028;8.536;2022-12-18T04:51:49;10.88;;;6.93;;
53654;SDS011;39558;52.028;8.536;2022-12-18T04:54:15;14.82;;;8.65;;
53654;SDS011;39558;52.028;8.536;2022-12-18T04:56:40;12.57;;;7.63;;
53654;SDS011;39558;52.028;8.536;2022-12-18T04:59:06;13.27;;;8.52;;
53654;SDS011;39558;52.028;8.536;2022-12-18T05:01:32;12.55;;;8.02;;
53654;SDS011;39558;52.028;8.536;2022-12-18T05:03:58;13.45;;;7.78;;
53654;SDS011;39558;52.028;8.536;2022-12-18T05:06:24;13.70;;;7.50;;
53654;SDS011;39558;52.028;8.536;2022-12-18T05:08:50;14.18;;;8.13;;
53654;SDS011;39558;52.028;8.536;2022-12-18T05:11:16;15.00;;;8.25;;
53654;SDS011;39558;52.028;8.536;2022-12-18T05:13:42;14.60;;;8.38;;
53654;SDS011;39558;52.028;8.536;2022-12-18T05:16:09;16.27;;;8.45;;
53654;SDS011;39558;52.028;8.536;2022-12-18T05:18:35;16.80;;;9.73;;
53654;SDS011;39558;52.028;8.536;2022-12-18T05:21:01;16.67;;;9.57;;
53654;SDS011;39558;52.028;8.536;2022-12-18T05:23:27;15.57;;;9.18;;
53654;SDS011;39558;52.028;8.536;2022-12-18T05:25:57;16.08;;;9.40;;
53654;SDS011;39558;52.028;8.536;2022-12-18T05:28:24;15.27;;;9.32;;
53654;SDS011;39558;52.028;8.536;2022-12-18T05:30:51;18.13;;;9.20;;
53654;SDS011;39558;52.028;8.536;2022-12-18T05:33:17;15.82;;;9.35;;
53654;SDS011;39558;52.028;8.536;2022-12-18T05:35:43;18.20;;;10.65;;
53654;SDS011;39558;52.028;8.536;2022-12-18T05:38:09;17.58;;;9.40;;
53654;SDS011;39558;52.028;8.536;2022-12-18T05:40:35;17.20;;;10.02;;
53654;SDS011;39558;52.028;8.536;2022-12-18T05:43:04;16.70;;;9.40;;
53654;SDS011;39558;52.028;8.536;2022-12-18T05:45:30;18.33;;;9.50;;
53654;SDS011;39558;52.028;8.536;2022-12-18T05:47:56;18.77;;;10.07;;
53654;SDS011;39558;52.028;8.536;2022-12-18T05:50:22;17.58;;;10.40;;
53654;SDS011;39558;52.028;8.536;2022-12-18T05:52:48;19.77;;;11.35;;
53654;SDS011;39558;52.028;8.536;2022-12-18T05:55:13;16.98;;;9.57;;
53654;SDS011;39558;52.028;8.536;2022-12-18T05:57:39;17.27;;;10.45;;
53654;SDS011;39558;52.028;8.536;2022-12-18T06:00:05;16.98;;;10.25;;
53654;SDS011;39558;52.028;8.536;2022-12-18T06:02:31;18.05;;;9.75;;
53654;SDS011;39558;52.028;8.536;2022-12-18T06:04:57;16.15;;;10.38;;
53654;SDS011;39558;52.028;8.536;2022-12-18T06:07:23;20.15;;;12.13;;
53654;SDS011;39558;52.028;8.536;2022-12-18T06:09:49;18.52;;;10.60;;
53654;SDS011;39558;52.028;8.536;2022-12-18T06:12:15;19.77;;;10.93;;
53654;SDS011;39558;52.028;8.536;2022-12-18T06:14:41;17.23;;;10.85;;
53654;SDS011;39558;52.028;8.536;2022-12-18T06:17:07;19.80;;;10.80;;
53654;SDS011;39558;52.028;8.536;2022-12-18T06:19:32;18.42;;;10.93;;
53654;SDS011;39558;52.028;8.536;2022-12-18T06:21:58;18.17;;;11.00;;
53654;SDS011;39558;52.028;8.536;2022-12-18T06:24:24;19.23;;;11.10;;
53654;SDS011;39558;52.028;8.536;2022-12-18T06:26:50;17.42;;;9.82;;
53654;SDS011;39558;52.028;8.536;2022-12-18T06:29:16;18.13;;;11.05;;
53654;SDS011;39558;52.028;8.536;2022-12-18T06:31:42;20.70;;;11.20;;
53654;SDS011;39558;52.028;8.536;2022-12-18T06:34:08;22.33;;;11.65;;
53654;SDS011;39558;52.028;8.536;2022-12-18T06:36:34;19.10;;;11.48;;
53654;SDS011;39558;52.028;8.536;2022-12-18T06:38:59;20.50;;;12.13;;
53654;SDS011;39558;52.028;8.536;2022-12-18T06:41:25;18.23;;;11.02;;
53654;SDS011;39558;52.028;8.536;2022-12-18T06:43:51;19.98;;;12.43;;
53654;SDS011;39558;52.028;8.536;2022-12-18T06:46:17;19.05;;;11.65;;
53654;SDS011;39558;52.028;8.536;2022-12-18T06:48:46;17.23;;;10.35;;
53654;SDS011;39558;52.028;8.536;2022-12-18T06:51:12;17.95;;;10.85;;
53654;SDS011;39558;52.028;8.536;2022-12-18T06:53:40;21.15;;;11.80;;
53654;SDS011;39558;52.028;8.536;2022-12-18T06:56:06;21.60;;;12.13;;
53654;SDS011;39558;52.028;8.536;2022-12-18T06:58:32;17.85;;;10.32;;
53654;SDS011;39558;52.028;8.536;2022-12-18T07:00:59;20.40;;;11.50;;
53654;SDS011;39558;52.028;8.536;2022-12-18T07:03:25;20.17;;;11.68;;
53654;SDS011;39558;52.028;8.536;2022-12-18T07:05:51;20.92;;;11.48;;
53654;SDS011;39558;52.028;8.536;2022-12-18T07:08:17;22.00;;;11.93;;
53654;SDS011;39558;52.028;8.536;2022-12-18T07:10:43;20.40;;;10.98;;
53654;SDS011;39558;52.028;8.536;2022-12-18T07:13:09;22.88;;;11.73;;
53654;SDS011;39558;52.028;8.536;2022-12-18T07:15:35;20.20;;;11.45;;
53654;SDS011;39558;52.028;8.536;2022-12-18T07:18:01;19.70;;;11.20;;
53654;SDS011;39558;52.028;8.536;2022-12-18T07:20:26;25.35;;;13.43;;
53654;SDS011;39558;52.028;8.536;2022-12-18T07:22:52;19.35;;;12.15;;
53654;SDS011;39558;52.028;8.536;2022-12-18T07:25:18;22.65;;;13.20;;
53654;SDS011;39558;52.028;8.536;2022-12-18T07:27:44;21.58;;;13.05;;
53654;SDS011;39558;52.028;8.536;2022-12-18T07:30:10;20.65;;;11.73;;
53654;SDS011;39558;52.028;8.536;2022-12-18T07:32:36;21.23;;;11.32;;
53654;SDS011;39558;52.028;8.536;2022-12-18T07:35:02;21.13;;;12.32;;
53654;SDS011;39558;52.028;8.536;2022-12-18T07:37:28;20.23;;;12.43;;
53654;SDS011;39558;52.028;8.536;2022-12-18T07:39:54;19.30;;;12.10;;
53654;SDS011;39558;52.028;8.536;2022-12-18T07:42:19;22.27;;;12.20;;
53654;SDS011;39558;52.028;8.536;2022-12-18T07:44:58;19.45;;;11.35;;
53654;SDS011;39558;52.028;8.536;2022-12-18T07:47:24;22.77;;;12.63;;
53654;SDS011;39558;52.028;8.536;2022-12-18T07:49:50;20.35;;;11.77;;
53654;SDS011;39558;52.028;8.536;2022-12-18T07:52:16;23.77;;;13.75;;
53654;SDS011;39558;52.028;8.536;2022-12-18T07:54:42;20.38;;;12.75;;
53654;SDS011;39558;52.028;8.536;2022-12-18T07:57:08;19.98;;;12.55;;
53654;SDS011;39558;52.028;8.536;2022-12-18T07:59:34;20.02;;;12.30;;
53654;SDS011;39558;52.028;8.536;2022-12-18T08:02:00;19.55;;;11.00;;
53654;SDS011;39558;52.028;8.536;2022-12-18T08:04:26;20.65;;;12.18;;
53654;SDS011;39558;52.028;8.536;2022-12-18T08:06:52;21.00;;;12.55;;
53654;SDS011;39558;52.028;8.536;2022-12-18T08:09:18;21.25;;;12.68;;
53654;SDS011;39558;52.028;8.536;2022-12-18T08:11:44;18.33;;;10.80;;
53654;SDS011;39558;52.028;8.536;2022-12-18T08:14:10;17.50;;;11.35;;
53654;SDS011;39558;52.028;8.536;2022-12-18T08:16:36;18.77;;;10.85;;
53654;SDS011;39558;52.028;8.536;2022-12-18T08:19:02;19.77;;;12.35;;
53654;SDS011;39558;52.028;8.536;2022-12-18T08:21:29;18.65;;;11.10;;
53654;SDS011;39558;52.028;8.536;2022-12-18T08:23:56;18.13;;;10.85;;
53654;SDS011;39558;52.028;8.536;2022-12-18T08:26:22;16.75;;;10.70;;
53654;SDS011;39558;52.028;8.536;2022-12-18T08:28:49;17.55;;;11.13;;
53654;SDS011;39558;52.028;8.536;2022-12-18T08:31:15;18.83;;;10.88;;
53654;SDS011;39558;52.028;8.536;2022-12-18T08:33:41;17.65;;;11.00;;
53654;SDS011;39558;52.028;8.536;2022-12-18T08:36:07;19.17;;;10.98;;
53654;SDS011;39558;52.028;8.536;2022-12-18T08:38:33;16.15;;;9.43;;
53654;SDS011;39558;52.028;8.536;2022-12-18T08:41:03;16.60;;;10.02;;
53654;SDS011;39558;52.028;8.536;2022-12-18T08:46:14;17.17;;;10.15;;
53654;SDS011;39558;52.028;8.536;2022-12-18T08:48:40;18.00;;;10.30;;
53654;SDS011;39558;52.028;8.536;2022-12-18T08:51:06;18.00;;;10.02;;
53654;SDS011;39558;52.028;8.536;2022-12-18T08:53:34;18.42;;;10.57;;
53654;SDS011;39558;52.028;8.536;2022-12-18T08:56:00;16.08;;;10.63;;
53654;SDS011;39558;52.028;8.536;2022-12-18T08:58:26;17.55;;;9.82;;
53654;SDS011;39558;52.028;8.536;2022-12-18T09:00:52;18.05;;;9.65;;
53654;SDS011;39558;52.028;8.536;2022-12-18T09:03:18;17.15;;;9.93;;
53654;SDS011;39558;52.028;8.536;2022-12-18T09:05:48;19.40;;;10.30;;
53654;SDS011;39558;52.028;8.536;2022-12-18T09:08:14;15.93;;;9.20;;
53654;SDS011;39558;52.028;8.536;2022-12-18T09:10:43;18.73;;;9.50;;
53654;SDS011;39558;52.028;8.536;2022-12-18T09:13:10;15.75;;;9.43;;
53654;SDS011;39558;52.028;8.536;2022-12-18T09:15:43;16.05;;;9.00;;
53654;SDS011;39558;52.028;8.536;2022-12-18T09:18:10;14.82;;;8.57;;
53654;SDS011;39558;52.028;8.536;2022-12-18T09:20:36;15.68;;;9.55;;
53654;SDS011;39558;52.028;8.536;2022-12-18T09:23:02;14.35;;;8.68;;
53654;SDS011;39558;52.028;8.536;2022-12-18T09:25:29;15.48;;;9.55;;
53654;SDS011;39558;52.028;8.536;2022-12-18T09:28:00;14.70;;;8.50;;
53654;SDS011;39558;52.028;8.536;2022-12-18T09:30:26;19.58;;;9.68;;
53654;SDS011;39558;52.028;8.536;2022-12-18T09:32:52;15.55;;;9.07;;
53654;SDS011;39558;52.028;8.536;2022-12-18T09:35:18;12.48;;;8.43;;
53654;SDS011;39558;52.028;8.536;2022-12-18T09:37:44;15.02;;;8.70;;
53654;SDS011;39558;52.028;8.536;2022-12-18T09:40:14;13.32;;;7.78;;
53654;SDS011;39558;52.028;8.536;2022-12-18T09:42:40;15.68;;;9.30;;
53654;SDS011;39558;52.028;8.536;2022-12-18T09:45:07;15.75;;;9.13;;
53654;SDS011;39558;52.028;8.536;2022-12-18T09:47:37;15.77;;;9.23;;
53654;SDS011;39558;52.028;8.536;2022-12-18T09:50:05;14.20;;;7.85;;
53654;SDS011;39558;52.028;8.536;2022-12-18T09:52:45;13.93;;;8.52;;
53654;SDS011;39558;52.028;8.536;2022-12-18T09:55:21;14.13;;;8.27;;
53654;SDS011;39558;52.028;8.536;2022-12-18T09:57:51;16.10;;;9.15;;
53654;SDS011;39558;52.028;8.536;2022-12-18T10:00:19;16.42;;;8.65;;
53654;SDS011;39558;52.028;8.536;2022-12-18T10:02:45;14.52;;;8.13;;
53654;SDS011;39558;52.028;8.536;2022-12-18T10:05:12;14.32;;;7.80;;
53654;SDS011;39558;52.028;8.536;2022-12-18T10:10:14;14.13;;;8.40;;
53654;SDS011;39558;52.028;8.536;2022-12-18T10:15:14;13.02;;;8.02;;
53654;SDS011;39558;52.028;8.536;2022-12-18T10:17:51;14.38;;;7.63;;
53654;SDS011;39558;52.028;8.536;2022-12-18T10:20:38;14.38;;;7.68;;
53654;SDS011;39558;52.028;8.536;2022-12-18T10:23:25;13.10;;;7.53;;
53654;SDS011;39558;52.028;8.536;2022-12-18T10:25:58;12.23;;;7.90;;
53654;SDS011;39558;52.028;8.536;2022-12-18T10:28:26;12.85;;;7.50;;
53654;SDS011;39558;52.028;8.536;2022-12-18T10:30:52;11.93;;;7.05;;
53654;SDS011;39558;52.028;8.536;2022-12-18T10:33:22;11.38;;;6.78;;
53654;SDS011;39558;52.028;8.536;2022-12-18T10:35:51;13.75;;;7.78;;
53654;SDS011;39558;52.028;8.536;2022-12-18T10:40:51;10.63;;;7.03;;
53654;SDS011;39558;52.028;8.536;2022-12-18T10:43:25;12.45;;;7.93;;
53654;SDS011;39558;52.028;8.536;2022-12-18T10:45:59;12.80;;;7.82;;
53654;SDS011;39558;52.028;8.536;2022-12-18T10:48:25;11.20;;;7.18;;
53654;SDS011;39558;52.028;8.536;2022-12-18T10:50:52;12.93;;;7.80;;
53654;SDS011;39558;52.028;8.536;2022-12-18T10:53:26;11.20;;;7.15;;
53654;SDS011;39558;52.028;8.536;2022-12-18T10:55:53;10.35;;;7.03;;
53654;SDS011;39558;52.028;8.536;2022-12-18T10:58:30;12.00;;;7.15;;
53654;SDS011;39558;52.028;8.536;2022-12-18T11:01:16;11.13;;;6.43;;
53654;SDS011;39558;52.028;8.536;2022-12-18T11:03:45;12.27;;;7.20;;
53654;SDS011;39558;52.028;8.536;2022-12-18T11:06:19;12.80;;;7.18;;
53654;SDS011;39558;52.028;8.536;2022-12-18T11:09:32;10.70;;;6.50;;
53654;SDS011;39558;52.028;8.536;2022-12-18T11:11:32;10.88;;;6.68;;
53654;SDS011;39558;52.028;8.536;2022-12-18T11:14:02;12.02;;;7.00;;
53654;SDS011;39558;52.028;8.536;2022-12-18T11:18:55;12.48;;;7.15;;
53654;SDS011;39558;52.028;8.536;2022-12-18T11:21:39;13.25;;;7.40;;
53654;SDS011;39558;52.028;8.536;2022-12-18T11:24:07;12.02;;;7.07;;
53654;SDS011;39558;52.028;8.536;2022-12-18T11:26:40;12.52;;;7.25;;
53654;SDS011;39558;52.028;8.536;2022-12-18T11:29:09;10.60;;;6.65;;
53654;SDS011;39558;52.028;8.536;2022-12-18T11:31:35;12.57;;;7.07;;
53654;SDS011;39558;52.028;8.536;2022-12-18T11:34:02;12.48;;;7.43;;
53654;SDS011;39558;52.028;8.536;2022-12-18T11:36:32;13.55;;;7.38;;
53654;SDS011;39558;52.028;8.536;2022-12-18T11:38:59;12.13;;;7.38;;
53654;SDS011;39558;52.028;8.536;2022-12-18T11:41:31;12.00;;;7.20;;
53654;SDS011;39558;52.028;8.536;2022-12-18T11:44:25;10.85;;;7.40;;
53654;SDS011;39558;52.028;8.536;2022-12-18T11:46:55;12.77;;;7.50;;
53654;SDS011;39558;52.028;8.536;2022-12-18T11:49:42;12.57;;;7.72;;
53654;SDS011;39558;52.028;8.536;2022-12-18T11:52:15;12.73;;;6.88;;
53654;SDS011;39558;52.028;8.536;2022-12-18T11:54:42;11.05;;;6.90;;
53654;SDS011;39558;52.028;8.536;2022-12-18T11:57:27;12.82;;;7.50;;
53654;SDS011;39558;52.028;8.536;2022-12-18T11:59:57;11.35;;;7.15;;
53654;SDS011;39558;52.028;8.536;2022-12-18T12:02:40;11.05;;;7.10;;
53654;SDS011;39558;52.028;8.536;2022-12-18T12:07:55;11.35;;;6.82;;
53654;SDS011;39558;52.028;8.536;2022-12-18T12:10:28;12.02;;;6.80;;
53654;SDS011;39558;52.028;8.536;2022-12-18T12:15:41;11.48;;;6.82;;
53654;SDS011;39558;52.028;8.536;2022-12-18T12:18:17;11.38;;;6.85;;
53654;SDS011;39558;52.028;8.536;2022-12-18T12:20:52;12.02;;;6.55;;
53654;SDS011;39558;52.028;8.536;2022-12-18T12:23:22;11.65;;;6.85;;
53654;SDS011;39558;52.028;8.536;2022-12-18T12:25:57;11.18;;;6.70;;
53654;SDS011;39558;52.028;8.536;2022-12-18T12:33:48;11.85;;;6.80;;
53654;SDS011;39558;52.028;8.536;2022-12-18T12:36:22;11.27;;;6.40;;
53654;SDS011;39558;52.028;8.536;2022-12-18T12:38:57;11.70;;;6.13;;
53654;SDS011;39558;52.028;8.536;2022-12-18T12:41:25;10.55;;;6.60;;
53654;SDS011;39558;52.028;8.536;2022-12-18T12:44:24;9.85;;;6.00;;
53654;SDS011;39558;52.028;8.536;2022-12-18T12:46:52;11.05;;;6.28;;
53654;SDS011;39558;52.028;8.536;2022-12-18T12:49:20;12.50;;;7.40;;
53654;SDS011;39558;52.028;8.536;2022-12-18T12:54:46;9.25;;;5.70;;
53654;SDS011;39558;52.028;8.536;2022-12-18T12:57:20;10.52;;;6.35;;
53654;SDS011;39558;52.028;8.536;2022-12-18T12:59:57;11.65;;;6.53;;
53654;SDS011;39558;52.028;8.536;2022-12-18T13:02:30;11.75;;;7.15;;
53654;SDS011;39558;52.028;8.536;2022-12-18T13:05:11;10.18;;;5.78;;
53654;SDS011;39558;52.028;8.536;2022-12-18T13:07:45;9.82;;;5.95;;
53654;SDS011;39558;52.028;8.536;2022-12-18T13:12:51;10.20;;;6.38;;
53654;SDS011;39558;52.028;8.536;2022-12-18T13:15:21;10.73;;;6.28;;
53654;SDS011;39558;52.028;8.536;2022-12-18T13:17:48;9.68;;;5.75;;
53654;SDS011;39558;52.028;8.536;2022-12-18T13:20:14;10.55;;;5.95;;
53654;SDS011;39558;52.028;8.536;2022-12-18T13:22:42;10.00;;;6.60;;
53654;SDS011;39558;52.028;8.536;2022-12-18T13:27:57;11.38;;;5.72;;
53654;SDS011;39558;52.028;8.536;2022-12-18T13:38:20;12.25;;;5.93;;
53654;SDS011;39558;52.028;8.536;2022-12-18T13:43:22;11.80;;;6.05;;
53654;SDS011;39558;52.028;8.536;2022-12-18T13:48:34;9.25;;;5.78;;
53654;SDS011;39558;52.028;8.536;2022-12-18T13:51:08;11.77;;;6.65;;
53654;SDS011;39558;52.028;8.536;2022-12-18T13:53:39;9.43;;;5.57;;
53654;SDS011;39558;52.028;8.536;2022-12-18T13:56:08;9.40;;;5.82;;
53654;SDS011;39558;52.028;8.536;2022-12-18T13:58:33;9.38;;;5.97;;
53654;SDS011;39558;52.028;8.536;2022-12-18T14:00:59;8.95;;;5.55;;
53654;SDS011;39558;52.028;8.536;2022-12-18T14:03:28;10.80;;;6.22;;
53654;SDS011;39558;52.028;8.536;2022-12-18T14:05:59;9.48;;;5.88;;
53654;SDS011;39558;52.028;8.536;2022-12-18T14:08:26;9.98;;;6.00;;
53654;SDS011;39558;52.028;8.536;2022-12-18T14:10:55;9.10;;;5.65;;
53654;SDS011;39558;52.028;8.536;2022-12-18T14:13:29;10.73;;;5.82;;
53654;SDS011;39558;52.028;8.536;2022-12-18T14:15:56;9.02;;;5.70;;
53654;SDS011;39558;52.028;8.536;2022-12-18T14:20:49;9.60;;;6.10;;
53654;SDS011;39558;52.028;8.536;2022-12-18T14:23:25;10.80;;;5.72;;
53654;SDS011;39558;52.028;8.536;2022-12-18T14:25:51;11.65;;;6.45;;
53654;SDS011;39558;52.028;8.536;2022-12-18T14:28:17;12.45;;;6.60;;
53654;SDS011;39558;52.028;8.536;2022-12-18T14:30:44;10.27;;;6.25;;
53654;SDS011;39558;52.028;8.536;2022-12-18T14:33:19;10.80;;;6.30;;
53654;SDS011;39558;52.028;8.536;2022-12-18T14:35:52;11.20;;;6.68;;
53654;SDS011;39558;52.028;8.536;2022-12-18T14:38:23;12.57;;;7.13;;
53654;SDS011;39558;52.028;8.536;2022-12-18T14:40:53;12.23;;;7.07;;
53654;SDS011;39558;52.028;8.536;2022-12-18T14:43:20;11.52;;;6.35;;
53654;SDS011;39558;52.028;8.536;2022-12-18T14:45:45;11.68;;;6.32;;
53654;SDS011;39558;52.028;8.536;2022-12-18T14:48:16;10.30;;;6.82;;
53654;SDS011;39558;52.028;8.536;2022-12-18T14:50:43;10.77;;;6.75;;
53654;SDS011;39558;52.028;8.536;2022-12-18T14:53:19;11.30;;;6.72;;
53654;SDS011;39558;52.028;8.536;2022-12-18T14:55:46;11.23;;;6.88;;
53654;SDS011;39558;52.028;8.536;2022-12-18T14:58:14;10.90;;;7.13;;
53654;SDS011;39558;52.028;8.536;2022-12-18T15:00:41;11.93;;;7.25;;
53654;SDS011;39558;52.028;8.536;2022-12-18T15:03:07;14.20;;;8.77;;
53654;SDS011;39558;52.028;8.536;2022-12-18T15:05:34;12.07;;;7.13;;
53654;SDS011;39558;52.028;8.536;2022-12-18T15:08:00;10.80;;;7.18;;
53654;SDS011;39558;52.028;8.536;2022-12-18T15:10:28;12.85;;;8.00;;
53654;SDS011;39558;52.028;8.536;2022-12-18T15:18:04;11.55;;;6.57;;
53654;SDS011;39558;52.028;8.536;2022-12-18T15:25:43;13.32;;;7.43;;
53654;SDS011;39558;52.028;8.536;2022-12-18T15:28:15;10.75;;;6.97;;
53654;SDS011;39558;52.028;8.536;2022-12-18T15:30:57;11.15;;;6.78;;
53654;SDS011;39558;52.028;8.536;2022-12-18T15:33:24;10.68;;;6.90;;
53654;SDS011;39558;52.028;8.536;2022-12-18T15:35:57;13.95;;;7.55;;
53654;SDS011;39558;52.028;8.536;2022-12-18T15:38:23;11.90;;;7.20;;
53654;SDS011;39558;52.028;8.536;2022-12-18T15:40:49;13.50;;;7.82;;
53654;SDS011;39558;52.028;8.536;2022-12-18T15:43:15;12.20;;;7.50;;
53654;SDS011;39558;52.028;8.536;2022-12-18T15:46:00;11.57;;;7.32;;
53654;SDS011;39558;52.028;8.536;2022-12-18T15:48:26;12.10;;;7.03;;
53654;SDS011;39558;52.028;8.536;2022-12-18T15:50:52;11.00;;;6.80;;
53654;SDS011;39558;52.028;8.536;2022-12-18T15:53:21;10.73;;;6.90;;
53654;SDS011;39558;52.028;8.536;2022-12-18T15:55:47;13.05;;;7.50;;